createdAt,value
2023-01-31T00:04:07.698Z,0.73
2023-01-31T00:09:13.087Z,0.57
2023-01-31T00:14:19.937Z,0.80
2023-01-31T00:19:24.981Z,0.80
2023-01-31T00:24:28.626Z,0.80
2023-01-31T00:29:32.155Z,0.60
2023-01-31T00:34:37.549Z,0.80
2023-01-31T00:39:44.418Z,0.77
2023-01-31T00:44:47.977Z,0.87
2023-01-31T00:49:52.866Z,1.07
2023-01-31T00:54:56.474Z,1.03
2023-01-31T01:00:00.054Z,1.03
2023-01-31T01:05:06.468Z,0.93
2023-01-31T01:10:11.339Z,0.97
2023-01-31T01:15:15.848Z,1.10
2023-01-31T01:20:20.940Z,1.27
2023-01-31T01:25:24.414Z,0.70
2023-01-31T01:30:27.976Z,0.80
2023-01-31T01:35:34.833Z,0.73
2023-01-31T01:40:39.496Z,0.90
2023-01-31T01:45:43.322Z,0.93
2023-01-31T01:50:50.472Z,1.00
2023-01-31T01:55:58.664Z,0.93
2023-01-31T02:01:06.596Z,1.00
2023-01-31T02:06:11.997Z,0.90
2023-01-31T02:11:25.146Z,0.90
2023-01-31T02:16:29.290Z,1.00
2023-01-31T02:22:02.165Z,0.70
2023-01-31T02:27:32.871Z,0.60
2023-01-31T02:32:52.468Z,0.63
2023-01-31T02:38:08.626Z,0.70
2023-01-31T02:43:20.385Z,0.73
2023-01-31T02:48:36.576Z,0.60
2023-01-31T02:53:46.159Z,0.53
2023-01-31T02:58:57.577Z,0.60
2023-01-31T03:04:05.583Z,0.80
2023-01-31T03:09:21.316Z,0.80
2023-01-31T03:14:31.239Z,0.70
2023-01-31T03:19:45.117Z,0.87
2023-01-31T03:24:51.468Z,0.73
2023-01-31T03:30:02.497Z,0.50
2023-01-31T03:35:09.530Z,0.67
2023-01-31T03:40:18.683Z,0.80
2023-01-31T03:45:28.469Z,0.47
2023-01-31T03:50:39.693Z,0.53
2023-01-31T03:55:50.526Z,0.80
2023-01-31T04:00:55.927Z,0.73
2023-01-31T04:06:01.610Z,0.80
2023-01-31T04:11:11.778Z,1.17
2023-01-31T04:16:15.619Z,0.80
2023-01-31T04:21:20.536Z,0.67
2023-01-31T04:26:24.112Z,0.60
2023-01-31T04:31:28.541Z,0.80
2023-01-31T04:36:33.545Z,0.70
2023-01-31T04:41:37.113Z,0.50
2023-01-31T04:46:40.795Z,0.80
2023-01-31T04:51:45.691Z,0.43
2023-01-31T04:56:49.230Z,0.67
2023-01-31T05:01:52.795Z,0.63
2023-01-31T05:06:57.820Z,0.70
2023-01-31T05:12:01.446Z,0.40
2023-01-31T05:17:05.625Z,0.70
2023-01-31T05:22:10.744Z,0.90
2023-01-31T05:27:14.284Z,0.60
2023-01-31T05:32:19.360Z,0.70
2023-01-31T05:37:24.366Z,0.50
2023-01-31T05:42:28.079Z,0.40
2023-01-31T05:47:32.215Z,0.67
2023-01-31T05:52:37.118Z,0.40
2023-01-31T05:57:42.751Z,0.70
2023-01-31T06:02:49.440Z,0.73
2023-01-31T06:07:55.206Z,0.80
2023-01-31T06:12:58.804Z,0.83
2023-01-31T06:18:02.960Z,0.60
2023-01-31T06:23:07.857Z,0.70
2023-01-31T06:28:11.591Z,0.80
2023-01-31T06:33:15.227Z,0.97
2023-01-31T06:38:20.120Z,0.77
2023-01-31T06:43:23.782Z,0.80
2023-01-31T06:48:27.335Z,1.00
2023-01-31T06:53:32.745Z,0.90
2023-01-31T06:58:36.520Z,0.87
2023-01-31T07:03:40.159Z,0.70
2023-01-31T07:08:45.198Z,0.90
2023-01-31T07:13:50.244Z,1.07
2023-01-31T07:18:54.555Z,0.70
2023-01-31T07:23:59.506Z,1.00
2023-01-31T07:29:03.043Z,0.90
2023-01-31T07:34:06.634Z,0.83
2023-01-31T07:39:11.744Z,0.83
2023-01-31T07:44:15.342Z,0.63
2023-01-31T07:49:18.943Z,0.70
2023-01-31T07:54:23.973Z,0.63
2023-01-31T07:59:27.572Z,1.20
2023-01-31T08:04:31.308Z,1.23
2023-01-31T08:09:36.575Z,1.10
2023-01-31T08:14:40.313Z,1.13
2023-01-31T08:19:43.867Z,1.80
2023-01-31T08:24:48.819Z,1.40
2023-01-31T08:29:52.877Z,1.20
2023-01-31T08:34:56.521Z,1.10
2023-01-31T08:40:01.478Z,1.40
2023-01-31T08:45:07.065Z,1.80
2023-01-31T08:50:25.964Z,1.40
2023-01-31T08:55:35.519Z,1.60
2023-01-31T09:00:39.027Z,1.70
2023-01-31T09:05:42.582Z,1.50
2023-01-31T09:10:53.169Z,1.10
2023-01-31T09:16:00.569Z,1.73
2023-01-31T09:21:09.041Z,1.50
2023-01-31T09:26:14.634Z,1.00
2023-01-31T09:31:20.327Z,1.27
2023-01-31T09:36:25.516Z,1.23
2023-01-31T09:41:35.391Z,1.20
2023-01-31T09:46:43.047Z,0.90
2023-01-31T09:51:50.973Z,1.20
2023-01-31T09:57:06.027Z,1.53
2023-01-31T10:02:31.900Z,1.70
2023-01-31T10:07:42.386Z,1.00
2023-01-31T10:12:51.385Z,0.80
2023-01-31T10:18:00.203Z,1.10
2023-01-31T10:23:09.295Z,1.37
2023-01-31T10:28:19.649Z,1.20
2023-01-31T10:33:30.376Z,1.30
2023-01-31T10:38:41.821Z,1.43
2023-01-31T10:43:53.337Z,1.50
2023-01-31T10:48:56.910Z,1.60
2023-01-31T10:54:14.923Z,1.10
2023-01-31T10:59:26.265Z,1.70
2023-01-31T11:04:32.555Z,1.07
2023-01-31T11:09:39.317Z,0.93
2023-01-31T11:14:44.331Z,1.00
2023-01-31T11:19:51.011Z,0.70
2023-01-31T11:24:56.446Z,0.70
2023-01-31T11:30:04.212Z,0.57
2023-01-31T11:35:25.192Z,0.80
2023-01-31T11:40:31.718Z,1.17
2023-01-31T11:45:38.723Z,1.20
2023-01-31T11:50:46.048Z,1.00
2023-01-31T11:55:51.213Z,1.40
2023-01-31T12:00:59.494Z,1.27
2023-01-31T12:06:04.569Z,1.17
2023-01-31T12:11:29.070Z,1.10
2023-01-31T12:16:35.284Z,1.00
2023-01-31T12:21:51.288Z,1.10
2023-01-31T12:26:58.084Z,0.90
2023-01-31T12:32:30.437Z,0.73
2023-01-31T12:37:47.048Z,0.90
2023-01-31T12:42:58.066Z,0.67
2023-01-31T12:48:29.601Z,1.17
2023-01-31T12:53:47.003Z,0.80
2023-01-31T12:59:14.696Z,1.07
2023-01-31T13:04:32.199Z,0.90
2023-01-31T13:09:42.442Z,0.67
2023-01-31T13:14:50.432Z,0.87
2023-01-31T13:20:00.196Z,0.77
2023-01-31T13:25:17.063Z,0.50
2023-01-31T13:30:28.160Z,0.80
2023-01-31T13:35:38.319Z,0.60
2023-01-31T13:40:49.071Z,0.60
2023-01-31T13:46:02.986Z,0.70
2023-01-31T13:51:16.067Z,0.80
2023-01-31T13:56:24.779Z,0.87
2023-01-31T14:01:48.110Z,1.10
2023-01-31T14:07:14.322Z,0.77
2023-01-31T14:12:34.040Z,1.60
2023-01-31T14:18:02.646Z,0.93
2023-01-31T14:23:31.881Z,0.70
2023-01-31T14:28:43.593Z,0.80
2023-01-31T14:33:50.477Z,1.37
2023-01-31T14:39:29.156Z,1.47
2023-01-31T14:44:43.277Z,1.20
2023-01-31T14:50:22.063Z,1.00
2023-01-31T14:55:44.802Z,1.37
2023-01-31T15:00:51.501Z,1.00
2023-01-31T15:06:07.127Z,2.23
2023-01-31T15:11:42.424Z,2.13
2023-01-31T15:16:47.495Z,2.00
2023-01-31T15:21:55.792Z,1.90
2023-01-31T15:27:01.508Z,1.10
2023-01-31T15:32:17.564Z,1.40
2023-01-31T15:37:26.443Z,1.40
2023-01-31T15:42:32.233Z,1.20
2023-01-31T15:47:35.868Z,1.07
2023-01-31T15:52:40.795Z,1.20
2023-01-31T15:57:52.770Z,1.30
2023-01-31T16:03:01.475Z,1.10
2023-01-31T16:08:16.447Z,1.07
2023-01-31T16:13:21.365Z,1.00
2023-01-31T16:18:25.683Z,1.27
2023-01-31T16:23:35.046Z,1.00
2023-01-31T16:28:41.286Z,1.10
2023-01-31T16:33:50.457Z,1.20
2023-01-31T16:39:01.651Z,0.73
2023-01-31T16:44:06.290Z,1.10
2023-01-31T16:49:22.056Z,1.10
2023-01-31T16:54:30.836Z,1.00
2023-01-31T16:59:46.065Z,0.97
2023-01-31T17:04:52.529Z,1.07
2023-01-31T17:10:00.150Z,1.47
2023-01-31T17:15:04.328Z,0.83
2023-01-31T17:20:09.112Z,0.70
2023-01-31T17:25:18.680Z,1.00
2023-01-31T17:30:23.217Z,1.20
2023-01-31T17:35:29.444Z,0.93
2023-01-31T17:40:34.805Z,1.20
2023-01-31T17:45:40.419Z,1.37
2023-01-31T17:50:46.224Z,1.00
2023-01-31T17:55:51.288Z,1.37
2023-01-31T18:00:55.636Z,1.30
2023-01-31T18:06:04.106Z,1.53
2023-01-31T18:11:11.347Z,1.53
2023-01-31T18:16:18.143Z,1.50
2023-01-31T18:21:23.819Z,1.83
2023-01-31T18:26:29.486Z,1.50
2023-01-31T18:31:33.225Z,1.30
2023-01-31T18:36:36.871Z,1.33
2023-01-31T18:41:41.809Z,1.93
2023-01-31T18:46:45.396Z,1.37
2023-01-31T18:51:49.726Z,1.70
2023-01-31T18:56:54.684Z,1.60
2023-01-31T19:01:58.366Z,1.80
2023-01-31T19:07:01.961Z,1.40
2023-01-31T19:12:07.449Z,1.40
2023-01-31T19:17:10.982Z,1.37
2023-01-31T19:22:14.550Z,1.93
2023-01-31T19:27:19.485Z,1.97
2023-01-31T19:32:23.377Z,2.03
2023-01-31T19:37:27.199Z,2.00
2023-01-31T19:42:32.096Z,1.50
2023-01-31T19:47:36.448Z,1.40
2023-01-31T19:52:39.996Z,1.07
2023-01-31T19:57:44.930Z,1.20
2023-01-31T20:02:48.912Z,1.40
2023-01-31T20:07:53.778Z,1.47
2023-01-31T20:13:02.349Z,1.30
2023-01-31T20:18:06.426Z,1.30
2023-01-31T20:23:11.847Z,0.90
2023-01-31T20:28:16.902Z,0.90
2023-01-31T20:33:21.040Z,0.83
2023-01-31T20:38:24.653Z,1.30
2023-01-31T20:43:29.600Z,0.80
2023-01-31T20:48:33.668Z,0.90
2023-01-31T20:53:37.931Z,0.97
2023-01-31T20:58:44.127Z,0.60
2023-01-31T21:03:47.726Z,0.87
2023-01-31T21:08:51.290Z,0.90
2023-01-31T21:13:56.108Z,0.60
2023-01-31T21:18:59.664Z,0.70
2023-01-31T21:24:04.386Z,0.40
2023-01-31T21:29:09.323Z,0.50
2023-01-31T21:34:12.898Z,0.50
2023-01-31T21:39:16.787Z,0.80
2023-01-31T21:44:21.769Z,0.70
2023-01-31T21:49:25.519Z,0.80
2023-01-31T21:54:29.400Z,1.30
2023-01-31T21:59:34.564Z,1.57
2023-01-31T22:04:38.211Z,1.10
2023-01-31T22:09:41.800Z,1.10
2023-01-31T22:14:46.756Z,1.20
2023-01-31T22:19:50.290Z,1.20
2023-01-31T22:24:53.863Z,1.10
2023-01-31T22:30:13.923Z,1.37
2023-01-31T22:35:19.219Z,1.00
2023-01-31T22:40:23.260Z,1.37
2023-01-31T22:45:28.370Z,1.53
2023-01-31T22:50:31.962Z,1.70
2023-01-31T22:55:38.995Z,1.50
2023-01-31T23:00:44.075Z,1.50
2023-01-31T23:05:47.685Z,1.60
2023-01-31T23:10:51.284Z,1.93
2023-01-31T23:15:56.235Z,1.40
2023-01-31T23:21:07.685Z,1.90
2023-01-31T23:26:12.014Z,2.00
2023-01-31T23:31:16.997Z,2.17
2023-01-31T23:36:20.633Z,2.30
2023-01-31T23:41:24.304Z,1.83
2023-01-31T23:46:29.254Z,1.43
2023-01-31T23:51:33.733Z,1.07
2023-01-31T23:56:37.642Z,1.27
